Ripley, Canada
Current Conditions -  °F | °C
As of 2:00 AM on Monday 24 Nov 2014 (Local Time) from CYVV Reporting Station
Moderate Rain Moderate Rain  
Wind Chill: 37°   Ceiling: 4000
Heat Index: 45°   Visibility: 6mi
Dew Point: 43°   Wind: 16mph
Humidity: 93%   Direction: 120°ESE
Pressure: 29.22"   Gusts: 26mph
Location:  44.07°N, 81.58°W
Report Text: CYVV 240700Z 12014G23KT 6SM RA FEW008 OVC040 07/06 A2922 RMK SF1SC7 PRESFR SLP901
Loading
Personal Weather Stations






























Interactive Weather Map New forecast layout! Learn more

10-Day Weather Forecast

Advertisements
Track Severe Weather on mobile